Data for 01/02/2015

Time Sea-Level Adjusted Pressure Absolute Pressure Temperature Relative Humidity Dew Point   
(mb) (inHg) (mb) (inHg) (C) (F) (%) (C) (F)
00:05 1019 30.09 848 25.04 -12.1 10.3 78 -15.1 4.7
00:10 1019 30.09 848 25.04 -11.9 10.7 78 -15 4.9
00:15 1019 30.09 848 25.04 -11.8 10.8 77 -15 5
00:20 1019 30.09 848 25.04 -11.7 10.9 78 -14.8 5.3
00:25 1019 30.09 848 25.04 -11.6 11.1 78 -14.7 5.5
00:30 1019 30.09 848 25.04 -11.4 11.5 74 -15.1 4.8
00:35 1019 30.09 848 25.04 -11.6 11.2 72 -15.6 4
00:40 1019 30.09 848 25.04 -12 10.4 74 -15.7 3.8
00:45 1019 30.09 848 25.04 -12.3 9.9 73 -16.3 2.7
00:50 1019 30.09 848 25.04 -12.7 9.2 74 -16.3 2.6
00:55 1019 30.09 848 25.04 -13.3 8.1 77 -16.4 2.4
01:00 1019 30.09 848 25.04 -14.1 6.7 84 -16.2 2.9
01:05 1019 30.09 848 25.04 -14.1 6.6 85 -16.1 3.1
01:10 1019 30.09 848 25.04 -13.8 7.1 83 -16.1 3
01:15 1019 30.09 848 25.04 -13.5 7.7 81 -16.1 3
01:20 1019 30.09 848 25.04 -13.5 7.8 79 -16.4 2.6
01:25 1019 30.09 848 25.04 -13.5 7.7 81 -16.2 2.9
01:30 1019 30.09 848 25.04 -13.2 8.3 80 -15.9 3.4
01:35 1018 30.06 848 25.04 -12.9 8.8 79 -15.8 3.6
01:40 1018 30.06 848 25.04 -12.6 9.4 78 -15.6 4
01:45 1018 30.06 848 25.04 -12.4 9.6 79 -15.4 4.2
01:50 1018 30.06 848 25.04 -12.6 9.3 80 -15.4 4.3
01:55 1018 30.06 848 25.04 -13.2 8.3 86 -15.1 4.9
02:00 1018 30.06 848 25.04 -12.9 8.7 86 -14.9 5.3
02:05 1018 30.06 848 25.04 -12.9 8.7 84 -15.1 4.8
02:10 1018 30.06 848 25.04 -13.1 8.5 83 -15.4 4.3
02:15 1018 30.06 848 25.04 -13.3 8 85 -15.3 4.4
02:20 1018 30.06 848 25.04 -13.2 8.3 85 -15.2 4.6
02:25 1018 30.06 847 25.01 -12.8 9 84 -15 5
02:30 1018 30.06 847 25.01 -12.5 9.6 82 -14.9 5.1
02:35 1018 30.06 847 25.01 -12.5 9.6 83 -14.8 5.3
02:40 1018 30.06 847 25.01 -12.4 9.7 84 -14.6 5.7
02:45 1018 30.06 847 25.01 -12.3 9.8 84 -14.5 5.9
02:50 1018 30.06 847 25.01 -12 10.4 82 -14.5 5.9
02:55 1018 30.06 847 25.01 -12.2 10 81 -14.9 5.1
03:00 1018 30.06 847 25.01 -12.7 9.2 84 -14.8 5.3
03:05 1018 30.06 847 25.01 -12.8 8.9 83 -15.2 4.7
03:10 1018 30.06 847 25.01 -12.9 8.9 84 -15 5
03:15 1018 30.06 847 25.01 -12.8 9 84 -14.9 5.2
03:20 1018 30.06 847 25.01 -12.7 9.2 84 -14.8 5.3
03:25 1018 30.06 847 25.01 -12.8 8.9 84 -15 5.1
03:30 1018 30.06 847 25.01 -12.9 8.8 85 -15 5.1
03:35 1018 30.06 847 25.01 -12.9 8.8 85 -14.9 5.1
03:40 1018 30.06 847 25.01 -12.8 8.9 84 -15 5
03:45 1018 30.06 847 25.01 -12.9 8.9 84 -15 5
03:50 1018 30.06 847 25.01 -12.8 8.9 84 -14.9 5.1
03:55 1018 30.06 847 25.01 -12.8 9.1 85 -14.8 5.3
04:00 1018 30.06 847 25.01 -12.8 8.9 85 -14.9 5.3
04:05 1018 30.06 847 25.01 -12.9 8.8 84 -15 5
04:10 1018 30.06 847 25.01 -12.7 9.1 84 -14.9 5.1
04:15 1018 30.06 847 25.01 -12.3 9.8 80 -15 4.9
04:20 1018 30.06 847 25.01 -12.2 10.1 81 -14.8 5.3
04:25 1018 30.06 847 25.01 -12.4 9.7 82 -14.9 5.2
04:30 1018 30.06 847 25.01 -12.6 9.4 83 -14.8 5.3
04:35 1018 30.06 847 25.01 -12.6 9.4 85 -14.6 5.7
04:40 1017 30.03 847 25.01 -12.3 9.8 85 -14.3 6.2
04:45 1017 30.03 847 25.01 -12 10.4 84 -14.2 6.4
04:50 1017 30.03 847 25.01 -12.1 10.3 84 -14.2 6.4
04:55 1017 30.03 847 25.01 -12 10.4 84 -14.2 6.5
05:00 1017 30.03 847 25.01 -12 10.4 84 -14.2 6.5
05:05 1017 30.03 847 25.01 -12 10.4 85 -14.1 6.7
05:10 1017 30.03 847 25.01 -11.9 10.5 85 -14 6.8
05:15 1017 30.03 847 25.01 -11.9 10.6 84 -14 6.8
05:20 1017 30.03 847 25.01 -11.8 10.8 85 -13.8 7.1
05:25 1017 30.03 847 25.01 -11.7 10.9 83 -14 6.8
05:30 1017 30.03 847 25.01 -12.2 10.1 84 -14.4 6
05:35 1018 30.06 847 25.01 -12.1 10.2 84 -14.2 6.4
05:40 1018 30.06 847 25.01 -12.4 9.7 87 -14.2 6.4
05:45 1018 30.06 847 25.01 -12.4 9.6 86 -14.3 6.3
05:50 1018 30.06 847 25.01 -12.6 9.4 86 -14.4 6
05:55 1017 30.03 847 25.01 -12.8 9 83 -15.1 4.8
06:00 1017 30.03 847 25.01 -12.9 8.8 84 -15.1 4.8
06:05 1017 30.03 847 25.01 -12.8 9.1 83 -15 4.9
06:10 1017 30.03 847 25.01 -12.8 9 83 -15.1 4.9
06:15 1017 30.03 847 25.01 -12.8 9 83 -15 5
06:20 1017 30.03 846 24.98 -12.9 8.8 83 -15.2 4.7
06:25 1017 30.03 846 24.98 -13 8.5 86 -15 5.1
06:30 1017 30.03 846 24.98 -12.6 9.3 87 -14.4 6.1
06:35 1017 30.03 846 24.98 -12.3 9.8 86 -14.3 6.3
06:40 1017 30.03 846 24.98 -12.4 9.7 85 -14.4 6.1
06:45 1017 30.03 846 24.98 -12.4 9.6 85 -14.5 5.9
06:50 1017 30.03 846 24.98 -12.7 9.1 86 -14.7 5.6
06:55 1017 30.03 846 24.98 -12.7 9.2 86 -14.5 5.8
07:00 1017 30.03 846 24.98 -12.5 9.4 85 -14.6 5.7
07:05 1017 30.03 846 24.98 -12.5 9.5 85 -14.6 5.7
07:10 1017 30.03 846 24.98 -12.6 9.4 85 -14.5 5.8
07:15 1017 30.03 846 24.98 -12.4 9.7 85 -14.5 6
07:20 1017 30.03 846 24.98 -12.4 9.7 85 -14.4 6.1
07:25 1016 30 846 24.98 -12.4 9.6 86 -14.4 6.2
07:30 1016 30 846 24.98 -12.2 10 86 -14.2 6.5
07:35 1016 30 846 24.98 -12.1 10.3 85 -14.1 6.6
07:40 1016 30 846 24.98 -12 10.4 85 -14 6.8
07:45 1016 30 846 24.98 -11.8 10.8 84 -14 6.8
07:50 1016 30 845 24.95 -11.8 10.7 84 -14 6.8
07:55 1016 30 845 24.95 -11.7 10.9 82 -14.2 6.5
08:00 1016 30 845 24.95 -11.8 10.8 82 -14.3 6.3
08:05 1016 30 845 24.95 -11.5 11.2 80 -14.3 6.2
08:10 1016 30 845 24.95 -11.3 11.7 79 -14.3 6.3
08:15 1016 30 845 24.95 -11.5 11.4 81 -14.2 6.5
08:20 1016 30 845 24.95 -11.8 10.8 83 -14.1 6.6
08:25 1016 30 845 24.95 -11.4 11.5 81 -14 6.7
08:30 1016 30 845 24.95 -10.9 12.4 79 -13.8 7.2
08:35 1016 30 845 24.95 -10.9 12.5 79 -13.7 7.3
08:40 1016 30 845 24.95 -11.1 11.9 81 -13.8 7.2
08:45 1016 30 845 24.95 -11.3 11.6 83 -13.7 7.4
08:50 1016 30 845 24.95 -11.1 12 83 -13.4 7.8
08:55 1016 30 845 24.95 -10.8 12.6 83 -13.2 8.2
09:00 1016 30 845 24.95 -10.7 12.8 82 -13.2 8.2
09:05 1016 30 845 24.95 -10.6 12.9 81 -13.2 8.2
09:10 1016 30 845 24.95 -10.6 12.9 81 -13.3 8.1
09:15 1016 30 845 24.95 -10.7 12.7 81 -13.4 7.8
09:20 1016 30 846 24.98 -10.9 12.4 81 -13.6 7.6
09:25 1016 30 846 24.98 -11.1 12 81 -13.7 7.3
09:30 1016 30 846 24.98 -11.2 11.8 81 -13.9 6.9
09:35 1016 30 846 24.98 -11.6 11.2 84 -13.7 7.3
09:40 1016 30 846 24.98 -11.4 11.4 84 -13.7 7.4
09:45 1016 30 846 24.98 -11.1 12.1 82 -13.5 7.7
09:50 1016 30 845 24.95 -10.6 13 80 -13.4 7.9
09:55 1016 30 845 24.95 -10.6 13 79 -13.6 7.5
10:00 1016 30 845 24.95 -10.5 13 79 -13.5 7.6
10:05 1016 30 845 24.95 -10.5 13 80 -13.4 7.9
10:10 1016 30 845 24.95 -10.3 13.5 79 -13.2 8.2
10:15 1016 30 845 24.95 -10.2 13.7 79 -13.1 8.4
10:20 1016 30 845 24.95 -10 14 78 -13.1 8.4
10:25 1016 30 845 24.95 -9.8 14.4 78 -12.9 8.7
10:30 1016 30 845 24.95 -9.5 14.9 76 -12.9 8.7
10:35 1016 30 845 24.95 -9.3 15.2 77 -12.6 9.3
10:40 1016 30 845 24.95 -9.4 15 76 -12.8 8.9
10:45 1016 30 845 24.95 -9.8 14.4 80 -12.7 9.2
10:50 1016 30 845 24.95 -9.9 14.1 81 -12.6 9.3
10:55 1016 30 845 24.95 -9.6 14.7 80 -12.5 9.5
11:00 1016 30 845 24.95 -9.3 15.3 78 -12.4 9.7
11:05 1016 30 845 24.95 -8.7 16.4 76 -12.1 10.1
11:10 1015 29.97 845 24.95 -8.5 16.7 72 -12.6 9.3
11:15 1016 30 845 24.95 -8.1 17.5 70 -12.6 9.3
11:20 1015 29.97 845 24.95 -7.5 18.5 70 -12.1 10.2
11:25 1015 29.97 845 24.95 -7.3 18.9 72 -11.5 11.2
11:30 1015 29.97 844 24.92 -7.6 18.3 75 -11.3 11.7
11:35 1015 29.97 844 24.92 -7.9 17.8 75 -11.6 11.1
11:40 1015 29.97 844 24.92 -7.7 18.1 75 -11.4 11.5
11:45 1015 29.97 844 24.92 -7.6 18.3 77 -11 12.3
11:50 1015 29.97 844 24.92 -7.4 18.6 76 -10.9 12.3
11:55 1014 29.94 844 24.92 -7.1 19.3 72 -11.4 11.5
12:00 1014 29.94 843 24.89 -7 19.4 72 -11.3 11.7
12:05 1014 29.94 843 24.89 -6.8 19.8 71 -11.2 11.9
12:10 1014 29.94 843 24.89 -6.4 20.5 71 -10.8 12.5
12:15 1014 29.94 843 24.89 -6 21.2 70 -10.7 12.8
12:20 1014 29.94 843 24.89 -5.5 22 67 -10.7 12.8
12:25 1014 29.94 843 24.89 -5.2 22.7 65 -10.7 12.7
12:30 1014 29.94 843 24.89 -5.3 22.5 66 -10.6 12.9
12:35 1014 29.94 843 24.89 -5.9 21.3 67 -11.1 12.1
12:40 1014 29.94 843 24.89 -6.6 20.1 67 -11.8 10.8
12:45 1014 29.94 843 24.89 -6.7 20 67 -11.8 10.8
12:50 1014 29.94 843 24.89 -6.4 20.4 64 -12.1 10.2
12:55 1014 29.94 843 24.89 -6.6 20.2 66 -11.9 10.6
13:00 1014 29.94 843 24.89 -7.1 19.3 68 -11.9 10.6
13:05 1014 29.94 843 24.89 -7.3 18.8 67 -12.4 9.7
13:10 1014 29.94 843 24.89 -7.2 19 69 -11.9 10.5
13:15 1014 29.94 843 24.89 -6.9 19.5 68 -11.9 10.6
13:20 1014 29.94 843 24.89 -7.1 19.2 70 -11.7 10.9
13:25 1014 29.94 843 24.89 -6.9 19.6 69 -11.7 10.9
13:30 1013 29.91 843 24.89 -7.1 19.2 73 -11.1 12
13:35 1014 29.94 843 24.89 -6.9 19.5 69 -11.6 11
13:40 1014 29.94 843 24.89 -6.7 20 67 -11.8 10.8
13:45 1014 29.94 843 24.89 -6.2 20.8 66 -11.5 11.3
13:50 1014 29.94 843 24.89 -5.8 21.6 64 -11.6 11.2
13:55 1013 29.91 843 24.89 -5.3 22.5 63 -11.3 11.6
14:00 1013 29.91 842 24.86 -5.2 22.6 64 -11.1 12
14:05 1013 29.91 842 24.86 -5.5 22.1 64 -11.2 11.8
14:10 1013 29.91 842 24.86 -5.6 22 65 -11.2 11.9
14:15 1013 29.91 842 24.86 -5.3 22.4 65 -10.8 12.5
14:20 1013 29.91 842 24.86 -5.2 22.6 65 -10.8 12.5
14:25 1013 29.91 842 24.86 -5.5 22.1 66 -10.8 12.6
14:30 1013 29.91 842 24.86 -5.5 22.1 67 -10.6 12.9
14:35 1012 29.88 842 24.86 -5.3 22.5 66 -10.6 12.9
14:40 1012 29.88 842 24.86 -4.7 23.5 65 -10.4 13.3
14:45 1012 29.88 842 24.86 -3.9 25 63 -10 14
14:50 1012 29.88 842 24.86 -3.4 25.8 62 -9.6 14.7
14:55 1012 29.88 841 24.83 -3.2 26.3 61 -9.6 14.8
15:00 1012 29.88 841 24.83 -3.1 26.5 60 -9.7 14.5
15:05 1012 29.88 841 24.83 -2.9 26.8 60 -9.6 14.7
15:10 1012 29.88 841 24.83 -3.3 26.1 64 -9.2 15.5
15:15 1012 29.88 841 24.83 -3.3 26.1 64 -9.1 15.5
15:20 1012 29.88 841 24.83 -3.1 26.4 64 -9 15.8
15:25 1012 29.88 841 24.83 -3.1 26.5 63 -9.2 15.5
15:30 1012 29.88 841 24.83 -3.4 25.9 65 -9.1 15.7
15:35 1012 29.88 841 24.83 -3.6 25.6 66 -8.9 15.9
15:40 1012 29.88 841 24.83 -3.5 25.6 66 -8.9 16
15:45 1012 29.88 841 24.83 -3.6 25.4 67 -8.9 15.9
15:50 1012 29.88 841 24.83 -3.6 25.5 67 -8.9 16
15:55 1012 29.88 841 24.83 -3.6 25.6 67 -8.9 16
16:00 1012 29.88 841 24.83 -3.6 25.6 66 -9 15.8
16:05 1012 29.88 841 24.83 -3.3 26.1 65 -8.9 15.9
16:10 1012 29.88 841 24.83 -3 26.5 64 -8.9 16
16:15 1012 29.88 841 24.83 -2.8 27 65 -8.6 16.6
16:20 1012 29.88 841 24.83 -2.6 27.4 63 -8.7 16.4
16:25 1012 29.88 841 24.83 -2.4 27.7 65 -8.2 17.2
16:30 1011 29.85 841 24.83 -2.4 27.7 63 -8.5 16.7
16:35 1011 29.85 841 24.83 -2.3 27.9 63 -8.4 16.8
16:40 1011 29.85 841 24.83 -2.3 27.9 64 -8.3 17.1
16:45 1011 29.85 841 24.83 -2.2 28.1 65 -8 17.6
16:50 1011 29.85 841 24.83 -2.2 28 66 -7.8 17.9
16:55 1011 29.85 841 24.83 -2.3 27.8 66 -7.9 17.8
17:00 1011 29.85 841 24.83 -2.4 27.7 65 -8 17.5
17:05 1011 29.85 841 24.83 -2.5 27.4 67 -7.9 17.8
17:10 1011 29.85 840 24.81 -2.6 27.3 67 -7.9 17.8
17:15 1011 29.85 840 24.81 -2.6 27.4 68 -7.7 18.2
17:20 1011 29.85 840 24.81 -2.6 27.3 68 -7.7 18.2
17:25 1011 29.85 841 24.83 -2.8 27 70 -7.4 18.6
17:30 1011 29.85 841 24.83 -3.2 26.3 72 -7.4 18.6
17:35 1011 29.85 840 24.81 -3.4 25.9 73 -7.6 18.4
17:40 1011 29.85 840 24.81 -3.4 25.8 73 -7.5 18.4
17:45 1011 29.85 840 24.81 -3.4 25.9 73 -7.5 18.5
17:50 1011 29.85 840 24.81 -3.3 26 73 -7.5 18.6
17:55 1011 29.85 840 24.81 -3.3 26 74 -7.3 18.9
18:00 1011 29.85 840 24.81 -3.3 26.1 75 -7.1 19.3
18:05 1011 29.85 840 24.81 -3.3 26.1 75 -7.1 19.2
18:10 1011 29.85 840 24.81 -3.2 26.3 73 -7.3 18.8
18:15 1011 29.85 840 24.81 -3.1 26.5 72 -7.4 18.7
18:20 1011 29.85 840 24.81 -2.9 26.8 72 -7.2 19
18:25 1011 29.85 840 24.81 -2.8 27 73 -6.9 19.6
18:30 1011 29.85 840 24.81 -2.8 27 74 -6.9 19.7
18:35 1011 29.85 840 24.81 -2.9 26.8 74 -6.9 19.6
18:40 1011 29.85 840 24.81 -3.3 26 76 -7.1 19.3
18:45 1011 29.85 840 24.81 -3.4 25.8 76 -7.1 19.3
18:50 1011 29.85 840 24.81 -3.4 25.8 76 -7 19.4
18:55 1011 29.85 840 24.81 -3.6 25.6 78 -7 19.5
19:00 1011 29.85 840 24.81 -3.8 25.2 78 -7 19.4
19:05 1011 29.85 840 24.81 -3.9 25 79 -7 19.4
19:10 1011 29.85 840 24.81 -3.9 24.9 79 -7 19.4
19:15 1011 29.85 840 24.81 -4 24.9 80 -6.9 19.5
19:20 1011 29.85 840 24.81 -3.9 25 79 -7 19.4
19:25 1011 29.85 840 24.81 -3.9 25.1 79 -6.9 19.5
19:30 1011 29.85 840 24.81 -3.8 25.2 79 -6.9 19.6
19:35 1011 29.85 840 24.81 -3.5 25.7 78 -6.8 19.8
19:40 1011 29.85 840 24.81 -3.3 26 77 -6.8 19.8
19:45 1011 29.85 840 24.81 -3.3 26.1 77 -6.8 19.7
19:50 1011 29.85 840 24.81 -3.2 26.2 75 -7 19.3
19:55 1011 29.85 840 24.81 -3.3 26 77 -6.8 19.8
20:00 1011 29.85 840 24.81 -3.5 25.7 76 -7 19.3
20:05 1011 29.85 840 24.81 -3.6 25.5 75 -7.4 18.6
20:10 1011 29.85 840 24.81 -3.7 25.3 75 -7.5 18.4
20:15 1011 29.85 841 24.83 -3.8 25.2 76 -7.4 18.6
20:20 1012 29.88 841 24.83 -3.8 25.2 76 -7.5 18.5
20:25 1012 29.88 841 24.83 -3.8 25.1 76 -7.5 18.5
20:30 1012 29.88 841 24.83 -3.9 25 77 -7.4 18.7
20:35 1012 29.88 841 24.83 -3.9 25 78 -7.2 19.1
20:40 1012 29.88 841 24.83 -3.9 25 79 -6.9 19.5
20:45 1012 29.88 841 24.83 -4 24.8 82 -6.6 20.2
20:50 1012 29.88 841 24.83 -4.1 24.6 83 -6.5 20.3
20:55 1012 29.88 841 24.83 -4.1 24.7 84 -6.3 20.6
21:00 1012 29.88 841 24.83 -4 24.8 86 -6.1 21
21:05 1012 29.88 841 24.83 -3.9 24.9 87 -5.9 21.4
21:10 1012 29.88 841 24.83 -3.8 25.2 88 -5.5 22
21:15 1012 29.88 841 24.83 -3.7 25.4 89 -5.2 22.6
21:20 1012 29.88 841 24.83 -3.7 25.4 89 -5.2 22.7
21:25 1012 29.88 841 24.83 -3.6 25.5 89 -5.1 22.8
21:30 1012 29.88 841 24.83 -3.5 25.6 90 -4.9 23.1
21:35 1012 29.88 841 24.83 -3.4 25.9 90 -4.8 23.4
21:40 1012 29.88 841 24.83 -3.3 26 90 -4.8 23.4
21:45 1012 29.88 841 24.83 -3.3 26.1 90 -4.6 23.7
21:50 1012 29.88 841 24.83 -3.2 26.3 91 -4.5 23.9
21:55 1012 29.88 841 24.83 -3.2 26.3 91 -4.4 24
22:00 1012 29.88 841 24.83 -3.1 26.3 91 -4.4 24.1
22:05 1012 29.88 841 24.83 -3.2 26.3 92 -4.4 24.2
22:10 1012 29.88 841 24.83 -3.2 26.3 92 -4.4 24.2
22:15 1012 29.88 841 24.83 -3.2 26.2 92 -4.4 24.1
22:20 1012 29.88 841 24.83 -3.2 26.2 92 -4.4 24.1
22:25 1012 29.88 841 24.83 -3.2 26.2 92 -4.4 24.2
22:30 1012 29.88 841 24.83 -3.2 26.2 92 -4.4 24.1
22:35 1011 29.85 841 24.83 -3.3 26 92 -4.5 24
22:40 1011 29.85 841 24.83 -3.3 26.1 92 -4.4 24.1
22:45 1011 29.85 841 24.83 -3.3 26.1 92 -4.4 24.1
22:50 1011 29.85 840 24.81 -3.3 26.1 93 -4.3 24.2
22:55 1011 29.85 840 24.81 -3.1 26.4 93 -4.2 24.5
23:00 1011 29.85 840 24.81 -2.9 26.7 92 -4 24.8
23:05 1011 29.85 840 24.81 -2.8 26.9 92 -3.9 25
23:10 1011 29.85 840 24.81 -2.8 27 91 -4 24.8
23:15 1011 29.85 840 24.81 -2.8 27 91 -4.1 24.7
23:20 1011 29.85 840 24.81 -2.9 26.7 91 -4.2 24.4
23:25 1011 29.85 840 24.81 -2.9 26.7 92 -4.1 24.6
23:30 1011 29.85 840 24.81 -2.9 26.7 92 -4.1 24.6
23:35 1011 29.85 840 24.81 -3 26.7 92 -4.2 24.5
23:40 1011 29.85 840 24.81 -3 26.6 92 -4.1 24.6
23:45 1011 29.85 840 24.81 -3 26.7 92 -4.1 24.7
23:50 1011 29.85 840 24.81 -2.9 26.8 92 -4 24.8
23:55 1011 29.85 840 24.81 -2.9 26.7 92 -4.1 24.7
24:00 1011 29.85 841 24.83 -2.9 26.7 92 -4.1 24.7